sensor_id;sensor_type;location;lat;lon;timestamp;P1;durP1;ratioP1;P2;durP2;ratioP2
25503;SDS011;13410;52.114;5.718;2023-01-29T00:01:12;33.60;;;18.80;;
25503;SDS011;13410;52.114;5.718;2023-01-29T00:03:38;33.20;;;18.70;;
25503;SDS011;13410;52.114;5.718;2023-01-29T00:06:04;32.45;;;18.58;;
25503;SDS011;13410;52.114;5.718;2023-01-29T00:08:32;28.30;;;17.10;;
25503;SDS011;13410;52.114;5.718;2023-01-29T00:11:05;27.98;;;16.60;;
25503;SDS011;13410;52.114;5.718;2023-01-29T00:13:32;29.95;;;17.75;;
25503;SDS011;13410;52.114;5.718;2023-01-29T00:15:58;29.48;;;17.50;;
25503;SDS011;13410;52.114;5.718;2023-01-29T00:18:24;30.80;;;17.63;;
25503;SDS011;13410;52.114;5.718;2023-01-29T00:20:51;32.65;;;19.02;;
25503;SDS011;13410;52.114;5.718;2023-01-29T00:23:17;29.40;;;17.27;;
25503;SDS011;13410;52.114;5.718;2023-01-29T00:25:43;31.30;;;16.67;;
25503;SDS011;13410;52.114;5.718;2023-01-29T00:28:08;28.65;;;17.05;;
25503;SDS011;13410;52.114;5.718;2023-01-29T00:30:35;27.80;;;16.33;;
25503;SDS011;13410;52.114;5.718;2023-01-29T00:33:01;26.92;;;16.10;;
25503;SDS011;13410;52.114;5.718;2023-01-29T00:35:28;29.35;;;16.83;;
25503;SDS011;13410;52.114;5.718;2023-01-29T00:37:54;29.52;;;15.95;;
25503;SDS011;13410;52.114;5.718;2023-01-29T00:40:20;25.85;;;15.68;;
25503;SDS011;13410;52.114;5.718;2023-01-29T00:42:46;25.63;;;15.50;;
25503;SDS011;13410;52.114;5.718;2023-01-29T00:45:31;28.65;;;15.80;;
25503;SDS011;13410;52.114;5.718;2023-01-29T00:47:57;26.77;;;16.58;;
25503;SDS011;13410;52.114;5.718;2023-01-29T00:50:23;29.60;;;17.52;;
25503;SDS011;13410;52.114;5.718;2023-01-29T00:52:49;29.80;;;16.70;;
25503;SDS011;13410;52.114;5.718;2023-01-29T00:55:15;27.40;;;16.65;;
25503;SDS011;13410;52.114;5.718;2023-01-29T00:57:41;30.50;;;16.65;;
25503;SDS011;13410;52.114;5.718;2023-01-29T01:00:08;27.95;;;17.20;;
25503;SDS011;13410;52.114;5.718;2023-01-29T01:02:36;26.73;;;15.80;;
25503;SDS011;13410;52.114;5.718;2023-01-29T01:05:20;30.05;;;16.42;;
25503;SDS011;13410;52.114;5.718;2023-01-29T01:07:46;30.70;;;16.52;;
25503;SDS011;13410;52.114;5.718;2023-01-29T01:10:14;29.67;;;17.15;;
25503;SDS011;13410;52.114;5.718;2023-01-29T01:12:45;28.17;;;16.35;;
25503;SDS011;13410;52.114;5.718;2023-01-29T01:15:11;28.20;;;16.15;;
25503;SDS011;13410;52.114;5.718;2023-01-29T01:17:36;31.10;;;17.35;;
25503;SDS011;13410;52.114;5.718;2023-01-29T01:20:02;30.13;;;16.75;;
25503;SDS011;13410;52.114;5.718;2023-01-29T01:22:28;32.92;;;17.60;;
25503;SDS011;13410;52.114;5.718;2023-01-29T01:24:53;27.92;;;17.17;;
25503;SDS011;13410;52.114;5.718;2023-01-29T01:27:19;26.73;;;16.15;;
25503;SDS011;13410;52.114;5.718;2023-01-29T01:29:45;28.40;;;17.23;;
25503;SDS011;13410;52.114;5.718;2023-01-29T01:32:11;26.92;;;16.20;;
25503;SDS011;13410;52.114;5.718;2023-01-29T01:34:36;30.85;;;16.45;;
25503;SDS011;13410;52.114;5.718;2023-01-29T01:37:02;26.92;;;16.20;;
25503;SDS011;13410;52.114;5.718;2023-01-29T01:39:28;29.52;;;16.70;;
25503;SDS011;13410;52.114;5.718;2023-01-29T01:41:54;28.17;;;16.20;;
25503;SDS011;13410;52.114;5.718;2023-01-29T01:50:21;28.02;;;17.00;;
25503;SDS011;13410;52.114;5.718;2023-01-29T01:52:55;30.08;;;16.50;;
25503;SDS011;13410;52.114;5.718;2023-01-29T01:55:26;28.98;;;16.40;;
25503;SDS011;13410;52.114;5.718;2023-01-29T01:57:59;27.45;;;16.88;;
25503;SDS011;13410;52.114;5.718;2023-01-29T02:00:30;28.13;;;16.30;;
25503;SDS011;13410;52.114;5.718;2023-01-29T02:02:56;29.02;;;17.20;;
25503;SDS011;13410;52.114;5.718;2023-01-29T02:05:40;30.55;;;16.30;;
25503;SDS011;13410;52.114;5.718;2023-01-29T02:08:59;28.83;;;16.80;;
25503;SDS011;13410;52.114;5.718;2023-01-29T02:11:37;27.98;;;16.77;;
25503;SDS011;13410;52.114;5.718;2023-01-29T02:14:03;30.65;;;16.58;;
25503;SDS011;13410;52.114;5.718;2023-01-29T02:16:29;28.70;;;16.10;;
25503;SDS011;13410;52.114;5.718;2023-01-29T02:18:54;28.63;;;16.98;;
25503;SDS011;13410;52.114;5.718;2023-01-29T02:32:38;25.95;;;16.00;;
25503;SDS011;13410;52.114;5.718;2023-01-29T02:34:58;32.00;;;16.48;;
25503;SDS011;13410;52.114;5.718;2023-01-29T02:40:39;29.23;;;15.73;;
25503;SDS011;13410;52.114;5.718;2023-01-29T02:43:21;28.70;;;16.73;;
25503;SDS011;13410;52.114;5.718;2023-01-29T02:46:01;31.17;;;16.98;;
25503;SDS011;13410;52.114;5.718;2023-01-29T02:48:39;27.67;;;15.95;;
25503;SDS011;13410;52.114;5.718;2023-01-29T02:54:13;27.67;;;15.82;;
25503;SDS011;13410;52.114;5.718;2023-01-29T02:56:56;28.88;;;16.63;;
25503;SDS011;13410;52.114;5.718;2023-01-29T02:59:35;27.45;;;16.70;;
25503;SDS011;13410;52.114;5.718;2023-01-29T03:02:07;31.15;;;16.98;;
25503;SDS011;13410;52.114;5.718;2023-01-29T03:04:38;31.08;;;17.02;;
25503;SDS011;13410;52.114;5.718;2023-01-29T03:07:21;30.08;;;16.73;;
25503;SDS011;13410;52.114;5.718;2023-01-29T03:10:30;28.00;;;15.80;;
25503;SDS011;13410;52.114;5.718;2023-01-29T03:12:57;29.65;;;16.83;;
25503;SDS011;13410;52.114;5.718;2023-01-29T03:15:28;27.75;;;16.58;;
25503;SDS011;13410;52.114;5.718;2023-01-29T03:18:05;29.75;;;17.08;;
25503;SDS011;13410;52.114;5.718;2023-01-29T03:20:32;29.17;;;17.13;;
25503;SDS011;13410;52.114;5.718;2023-01-29T03:23:07;27.58;;;16.25;;
25503;SDS011;13410;52.114;5.718;2023-01-29T03:25:37;29.30;;;16.70;;
25503;SDS011;13410;52.114;5.718;2023-01-29T03:28:24;26.70;;;16.17;;
25503;SDS011;13410;52.114;5.718;2023-01-29T03:31:11;28.05;;;16.70;;
25503;SDS011;13410;52.114;5.718;2023-01-29T03:33:59;28.13;;;16.42;;
25503;SDS011;13410;52.114;5.718;2023-01-29T03:36:32;30.13;;;16.48;;
25503;SDS011;13410;52.114;5.718;2023-01-29T03:39:09;30.15;;;16.33;;
25503;SDS011;13410;52.114;5.718;2023-01-29T03:47:45;29.70;;;17.00;;
25503;SDS011;13410;52.114;5.718;2023-01-29T03:52:58;29.20;;;16.65;;
25503;SDS011;13410;52.114;5.718;2023-01-29T03:58:08;29.67;;;16.45;;
25503;SDS011;13410;52.114;5.718;2023-01-29T04:00:51;28.48;;;16.92;;
25503;SDS011;13410;52.114;5.718;2023-01-29T04:03:28;30.00;;;16.85;;
25503;SDS011;13410;52.114;5.718;2023-01-29T04:08:33;31.73;;;17.30;;
25503;SDS011;13410;52.114;5.718;2023-01-29T04:11:06;29.65;;;16.33;;
25503;SDS011;13410;52.114;5.718;2023-01-29T04:13:38;29.02;;;16.67;;
25503;SDS011;13410;52.114;5.718;2023-01-29T04:16:05;28.88;;;17.20;;
25503;SDS011;13410;52.114;5.718;2023-01-29T04:18:35;29.35;;;17.65;;
25503;SDS011;13410;52.114;5.718;2023-01-29T04:21:01;28.88;;;16.80;;
25503;SDS011;13410;52.114;5.718;2023-01-29T04:23:31;33.40;;;18.33;;
25503;SDS011;13410;52.114;5.718;2023-01-29T04:29:02;30.48;;;17.65;;
25503;SDS011;13410;52.114;5.718;2023-01-29T04:40:12;29.42;;;16.48;;
25503;SDS011;13410;52.114;5.718;2023-01-29T04:42:43;31.70;;;18.10;;
25503;SDS011;13410;52.114;5.718;2023-01-29T04:45:26;31.25;;;18.73;;
25503;SDS011;13410;52.114;5.718;2023-01-29T04:48:21;33.97;;;19.05;;
25503;SDS011;13410;52.114;5.718;2023-01-29T04:50:55;32.88;;;18.55;;
25503;SDS011;13410;52.114;5.718;2023-01-29T04:58:34;33.60;;;18.85;;
25503;SDS011;13410;52.114;5.718;2023-01-29T05:01:29;31.95;;;19.15;;
25503;SDS011;13410;52.114;5.718;2023-01-29T05:03:57;33.75;;;18.88;;
25503;SDS011;13410;52.114;5.718;2023-01-29T05:06:26;32.50;;;19.15;;
25503;SDS011;13410;52.114;5.718;2023-01-29T05:08:53;36.03;;;20.40;;
25503;SDS011;13410;52.114;5.718;2023-01-29T05:11:21;33.45;;;19.00;;
25503;SDS011;13410;52.114;5.718;2023-01-29T05:13:48;35.75;;;19.58;;
25503;SDS011;13410;52.114;5.718;2023-01-29T05:16:15;35.88;;;20.75;;
25503;SDS011;13410;52.114;5.718;2023-01-29T05:18:46;32.60;;;19.83;;
25503;SDS011;13410;52.114;5.718;2023-01-29T05:21:12;35.25;;;20.25;;
25503;SDS011;13410;52.114;5.718;2023-01-29T05:23:38;35.92;;;20.20;;
25503;SDS011;13410;52.114;5.718;2023-01-29T05:26:04;33.22;;;19.65;;
25503;SDS011;13410;52.114;5.718;2023-01-29T05:28:30;36.95;;;20.02;;
25503;SDS011;13410;52.114;5.718;2023-01-29T05:30:56;33.55;;;20.38;;
25503;SDS011;13410;52.114;5.718;2023-01-29T05:33:23;30.98;;;19.25;;
25503;SDS011;13410;52.114;5.718;2023-01-29T05:35:52;32.08;;;18.67;;
25503;SDS011;13410;52.114;5.718;2023-01-29T05:38:19;34.28;;;19.00;;
25503;SDS011;13410;52.114;5.718;2023-01-29T05:40:45;32.15;;;19.52;;
25503;SDS011;13410;52.114;5.718;2023-01-29T05:43:15;34.85;;;19.77;;
25503;SDS011;13410;52.114;5.718;2023-01-29T05:45:50;32.05;;;19.40;;
25503;SDS011;13410;52.114;5.718;2023-01-29T05:48:17;33.58;;;19.48;;
25503;SDS011;13410;52.114;5.718;2023-01-29T05:50:43;32.45;;;19.80;;
25503;SDS011;13410;52.114;5.718;2023-01-29T05:53:08;33.83;;;20.10;;
25503;SDS011;13410;52.114;5.718;2023-01-29T05:55:34;32.13;;;19.50;;
25503;SDS011;13410;52.114;5.718;2023-01-29T05:57:59;34.20;;;18.58;;
25503;SDS011;13410;52.114;5.718;2023-01-29T06:00:25;30.45;;;18.80;;
25503;SDS011;13410;52.114;5.718;2023-01-29T06:02:51;31.33;;;19.42;;
25503;SDS011;13410;52.114;5.718;2023-01-29T06:05:16;32.75;;;19.30;;
25503;SDS011;13410;52.114;5.718;2023-01-29T06:07:42;32.83;;;19.52;;
25503;SDS011;13410;52.114;5.718;2023-01-29T06:10:10;30.88;;;18.48;;
25503;SDS011;13410;52.114;5.718;2023-01-29T06:12:37;32.60;;;18.95;;
25503;SDS011;13410;52.114;5.718;2023-01-29T06:15:03;30.05;;;18.85;;
25503;SDS011;13410;52.114;5.718;2023-01-29T06:17:29;32.65;;;19.20;;
25503;SDS011;13410;52.114;5.718;2023-01-29T06:19:55;32.63;;;18.90;;
25503;SDS011;13410;52.114;5.718;2023-01-29T06:22:21;31.70;;;18.52;;
25503;SDS011;13410;52.114;5.718;2023-01-29T06:24:46;30.92;;;18.95;;
25503;SDS011;13410;52.114;5.718;2023-01-29T06:27:12;31.15;;;19.17;;
25503;SDS011;13410;52.114;5.718;2023-01-29T06:29:37;32.88;;;18.80;;
25503;SDS011;13410;52.114;5.718;2023-01-29T06:32:03;31.02;;;18.70;;
25503;SDS011;13410;52.114;5.718;2023-01-29T06:34:29;33.45;;;20.20;;
25503;SDS011;13410;52.114;5.718;2023-01-29T06:36:54;32.80;;;19.10;;
25503;SDS011;13410;52.114;5.718;2023-01-29T06:39:20;36.00;;;20.77;;
25503;SDS011;13410;52.114;5.718;2023-01-29T06:41:45;31.23;;;18.80;;
25503;SDS011;13410;52.114;5.718;2023-01-29T06:44:11;34.08;;;19.90;;
25503;SDS011;13410;52.114;5.718;2023-01-29T06:46:36;37.03;;;20.65;;
25503;SDS011;13410;52.114;5.718;2023-01-29T06:49:02;36.30;;;21.38;;
25503;SDS011;13410;52.114;5.718;2023-01-29T06:51:28;36.65;;;21.73;;
25503;SDS011;13410;52.114;5.718;2023-01-29T06:53:57;36.53;;;21.52;;
25503;SDS011;13410;52.114;5.718;2023-01-29T06:56:23;36.47;;;21.35;;
25503;SDS011;13410;52.114;5.718;2023-01-29T06:58:49;35.22;;;21.38;;
25503;SDS011;13410;52.114;5.718;2023-01-29T07:01:14;38.90;;;22.20;;
25503;SDS011;13410;52.114;5.718;2023-01-29T07:03:40;34.20;;;21.27;;
25503;SDS011;13410;52.114;5.718;2023-01-29T07:06:06;37.13;;;22.13;;
25503;SDS011;13410;52.114;5.718;2023-01-29T07:08:35;38.25;;;22.80;;
25503;SDS011;13410;52.114;5.718;2023-01-29T07:11:02;42.38;;;23.35;;
25503;SDS011;13410;52.114;5.718;2023-01-29T07:13:28;41.00;;;24.35;;
25503;SDS011;13410;52.114;5.718;2023-01-29T07:15:56;38.28;;;22.83;;
25503;SDS011;13410;52.114;5.718;2023-01-29T07:18:26;38.55;;;24.05;;
25503;SDS011;13410;52.114;5.718;2023-01-29T07:20:52;37.83;;;23.13;;
25503;SDS011;13410;52.114;5.718;2023-01-29T07:23:18;36.75;;;23.23;;
25503;SDS011;13410;52.114;5.718;2023-01-29T07:25:45;37.75;;;23.23;;
25503;SDS011;13410;52.114;5.718;2023-01-29T07:28:13;39.53;;;23.55;;
25503;SDS011;13410;52.114;5.718;2023-01-29T07:30:40;37.33;;;22.95;;
25503;SDS011;13410;52.114;5.718;2023-01-29T07:33:06;37.80;;;22.90;;
25503;SDS011;13410;52.114;5.718;2023-01-29T07:35:37;38.50;;;23.63;;
25503;SDS011;13410;52.114;5.718;2023-01-29T07:38:04;38.67;;;23.55;;
25503;SDS011;13410;52.114;5.718;2023-01-29T07:40:30;43.53;;;23.98;;
25503;SDS011;13410;52.114;5.718;2023-01-29T07:42:56;38.40;;;23.88;;
25503;SDS011;13410;52.114;5.718;2023-01-29T07:45:26;41.78;;;24.60;;
25503;SDS011;13410;52.114;5.718;2023-01-29T07:47:52;40.72;;;23.77;;
25503;SDS011;13410;52.114;5.718;2023-01-29T07:50:20;40.72;;;24.75;;
25503;SDS011;13410;52.114;5.718;2023-01-29T07:52:46;38.83;;;22.75;;
25503;SDS011;13410;52.114;5.718;2023-01-29T07:55:12;38.30;;;22.67;;
25503;SDS011;13410;52.114;5.718;2023-01-29T07:57:37;37.15;;;22.45;;
25503;SDS011;13410;52.114;5.718;2023-01-29T08:00:03;43.88;;;22.92;;
25503;SDS011;13410;52.114;5.718;2023-01-29T08:02:29;40.03;;;24.52;;
25503;SDS011;13410;52.114;5.718;2023-01-29T08:04:54;39.30;;;23.05;;
25503;SDS011;13410;52.114;5.718;2023-01-29T08:07:20;34.28;;;21.65;;
25503;SDS011;13410;52.114;5.718;2023-01-29T08:09:45;35.03;;;21.33;;
25503;SDS011;13410;52.114;5.718;2023-01-29T08:12:11;35.35;;;21.55;;
25503;SDS011;13410;52.114;5.718;2023-01-29T08:14:37;32.00;;;19.40;;
25503;SDS011;13410;52.114;5.718;2023-01-29T08:17:02;31.52;;;19.05;;
25503;SDS011;13410;52.114;5.718;2023-01-29T08:19:30;33.28;;;19.58;;
25503;SDS011;13410;52.114;5.718;2023-01-29T08:21:56;31.52;;;19.52;;
25503;SDS011;13410;52.114;5.718;2023-01-29T08:24:22;35.08;;;21.00;;
25503;SDS011;13410;52.114;5.718;2023-01-29T08:26:47;33.08;;;20.00;;
25503;SDS011;13410;52.114;5.718;2023-01-29T08:29:13;32.88;;;19.48;;
25503;SDS011;13410;52.114;5.718;2023-01-29T08:31:38;33.03;;;19.27;;
25503;SDS011;13410;52.114;5.718;2023-01-29T08:34:04;34.17;;;20.17;;
25503;SDS011;13410;52.114;5.718;2023-01-29T08:36:29;33.88;;;21.58;;
25503;SDS011;13410;52.114;5.718;2023-01-29T08:38:55;31.88;;;19.65;;
25503;SDS011;13410;52.114;5.718;2023-01-29T08:41:20;30.63;;;19.05;;
25503;SDS011;13410;52.114;5.718;2023-01-29T08:43:46;32.33;;;20.17;;
25503;SDS011;13410;52.114;5.718;2023-01-29T08:46:11;33.13;;;20.15;;
25503;SDS011;13410;52.114;5.718;2023-01-29T08:48:37;32.25;;;19.58;;
25503;SDS011;13410;52.114;5.718;2023-01-29T08:51:03;28.48;;;18.65;;
25503;SDS011;13410;52.114;5.718;2023-01-29T08:53:29;33.28;;;19.77;;
25503;SDS011;13410;52.114;5.718;2023-01-29T08:55:55;31.35;;;20.15;;
25503;SDS011;13410;52.114;5.718;2023-01-29T08:58:21;35.67;;;21.67;;
25503;SDS011;13410;52.114;5.718;2023-01-29T09:00:46;34.53;;;21.77;;
25503;SDS011;13410;52.114;5.718;2023-01-29T09:03:12;34.92;;;21.00;;
25503;SDS011;13410;52.114;5.718;2023-01-29T09:05:38;39.63;;;22.35;;
25503;SDS011;13410;52.114;5.718;2023-01-29T09:08:04;33.92;;;20.48;;
25503;SDS011;13410;52.114;5.718;2023-01-29T09:10:31;30.48;;;19.27;;
25503;SDS011;13410;52.114;5.718;2023-01-29T09:12:57;32.00;;;19.35;;
25503;SDS011;13410;52.114;5.718;2023-01-29T09:15:23;31.00;;;19.48;;
25503;SDS011;13410;52.114;5.718;2023-01-29T09:17:48;31.20;;;20.02;;
25503;SDS011;13410;52.114;5.718;2023-01-29T09:20:14;34.22;;;20.05;;
25503;SDS011;13410;52.114;5.718;2023-01-29T09:22:40;35.25;;;19.20;;
25503;SDS011;13410;52.114;5.718;2023-01-29T09:25:06;30.92;;;18.90;;
25503;SDS011;13410;52.114;5.718;2023-01-29T09:27:32;33.70;;;20.83;;
25503;SDS011;13410;52.114;5.718;2023-01-29T09:29:58;35.55;;;20.13;;
25503;SDS011;13410;52.114;5.718;2023-01-29T09:32:23;32.25;;;20.38;;
25503;SDS011;13410;52.114;5.718;2023-01-29T09:34:49;31.25;;;18.42;;
25503;SDS011;13410;52.114;5.718;2023-01-29T09:37:14;30.73;;;19.90;;
25503;SDS011;13410;52.114;5.718;2023-01-29T09:39:41;36.45;;;23.27;;
25503;SDS011;13410;52.114;5.718;2023-01-29T09:42:16;33.28;;;19.63;;
25503;SDS011;13410;52.114;5.718;2023-01-29T09:47:20;40.15;;;27.05;;
25503;SDS011;13410;52.114;5.718;2023-01-29T09:49:59;36.90;;;22.77;;
25503;SDS011;13410;52.114;5.718;2023-01-29T09:53:13;57.38;;;33.38;;
25503;SDS011;13410;52.114;5.718;2023-01-29T09:55:22;31.10;;;19.58;;
25503;SDS011;13410;52.114;5.718;2023-01-29T09:58:04;26.70;;;17.52;;
25503;SDS011;13410;52.114;5.718;2023-01-29T10:00:42;25.50;;;16.60;;
25503;SDS011;13410;52.114;5.718;2023-01-29T10:03:34;29.92;;;18.60;;
25503;SDS011;13410;52.114;5.718;2023-01-29T10:06:25;28.17;;;17.70;;
25503;SDS011;13410;52.114;5.718;2023-01-29T10:09:12;30.92;;;19.30;;
25503;SDS011;13410;52.114;5.718;2023-01-29T10:11:59;26.20;;;16.70;;
25503;SDS011;13410;52.114;5.718;2023-01-29T10:17:27;39.63;;;23.88;;
25503;SDS011;13410;52.114;5.718;2023-01-29T10:22:59;28.63;;;17.83;;
25503;SDS011;13410;52.114;5.718;2023-01-29T10:25:35;34.00;;;20.25;;
25503;SDS011;13410;52.114;5.718;2023-01-29T10:28:04;24.95;;;16.17;;
25503;SDS011;13410;52.114;5.718;2023-01-29T10:30:48;27.25;;;16.98;;
25503;SDS011;13410;52.114;5.718;2023-01-29T10:33:16;28.65;;;18.08;;
25503;SDS011;13410;52.114;5.718;2023-01-29T10:35:52;36.60;;;25.02;;
25503;SDS011;13410;52.114;5.718;2023-01-29T10:38:27;28.40;;;18.38;;
25503;SDS011;13410;52.114;5.718;2023-01-29T10:44:00;27.92;;;17.70;;
25503;SDS011;13410;52.114;5.718;2023-01-29T10:49:41;26.17;;;16.75;;
25503;SDS011;13410;52.114;5.718;2023-01-29T10:52:29;24.85;;;16.08;;
25503;SDS011;13410;52.114;5.718;2023-01-29T10:55:28;25.85;;;16.77;;
25503;SDS011;13410;52.114;5.718;2023-01-29T10:58:19;26.65;;;16.80;;
25503;SDS011;13410;52.114;5.718;2023-01-29T11:00:51;24.02;;;15.60;;
25503;SDS011;13410;52.114;5.718;2023-01-29T11:05:56;26.63;;;17.27;;
25503;SDS011;13410;52.114;5.718;2023-01-29T11:08:41;29.23;;;19.15;;
25503;SDS011;13410;52.114;5.718;2023-01-29T11:11:14;27.65;;;17.63;;
25503;SDS011;13410;52.114;5.718;2023-01-29T11:13:53;30.02;;;18.80;;
25503;SDS011;13410;52.114;5.718;2023-01-29T11:16:22;35.25;;;21.42;;
25503;SDS011;13410;52.114;5.718;2023-01-29T11:18:49;32.38;;;20.83;;
25503;SDS011;13410;52.114;5.718;2023-01-29T11:21:20;32.38;;;21.45;;
25503;SDS011;13410;52.114;5.718;2023-01-29T11:23:47;31.13;;;19.63;;
25503;SDS011;13410;52.114;5.718;2023-01-29T11:26:13;38.22;;;25.55;;
25503;SDS011;13410;52.114;5.718;2023-01-29T11:28:44;44.10;;;28.40;;
25503;SDS011;13410;52.114;5.718;2023-01-29T11:31:53;28.55;;;20.13;;
25503;SDS011;13410;52.114;5.718;2023-01-29T11:36:59;33.00;;;21.17;;
25503;SDS011;13410;52.114;5.718;2023-01-29T11:39:27;30.17;;;20.23;;
25503;SDS011;13410;52.114;5.718;2023-01-29T11:42:01;27.77;;;17.95;;
25503;SDS011;13410;52.114;5.718;2023-01-29T11:44:40;27.10;;;18.45;;
25503;SDS011;13410;52.114;5.718;2023-01-29T11:47:10;29.75;;;18.38;;
25503;SDS011;13410;52.114;5.718;2023-01-29T11:50:00;29.02;;;18.70;;
25503;SDS011;13410;52.114;5.718;2023-01-29T11:52:33;29.15;;;19.00;;
25503;SDS011;13410;52.114;5.718;2023-01-29T11:55:23;31.65;;;20.27;;
25503;SDS011;13410;52.114;5.718;2023-01-29T11:58:00;32.67;;;19.25;;
25503;SDS011;13410;52.114;5.718;2023-01-29T12:00:38;47.92;;;28.38;;
25503;SDS011;13410;52.114;5.718;2023-01-29T12:03:06;95.70;;;41.40;;
25503;SDS011;13410;52.114;5.718;2023-01-29T12:05:40;112.70;;;42.03;;
25503;SDS011;13410;52.114;5.718;2023-01-29T12:08:22;39.47;;;25.13;;
25503;SDS011;13410;52.114;5.718;2023-01-29T12:10:49;29.58;;;20.02;;
25503;SDS011;13410;52.114;5.718;2023-01-29T12:13:27;35.80;;;22.42;;
25503;SDS011;13410;52.114;5.718;2023-01-29T12:16:04;36.95;;;23.10;;
25503;SDS011;13410;52.114;5.718;2023-01-29T12:18:40;35.95;;;21.67;;
25503;SDS011;13410;52.114;5.718;2023-01-29T12:24:15;43.58;;;25.95;;
25503;SDS011;13410;52.114;5.718;2023-01-29T12:26:54;45.15;;;25.95;;
25503;SDS011;13410;52.114;5.718;2023-01-29T12:30:03;41.83;;;24.95;;
25503;SDS011;13410;52.114;5.718;2023-01-29T12:35:24;43.90;;;25.45;;
25503;SDS011;13410;52.114;5.718;2023-01-29T12:37:55;36.97;;;23.42;;
25503;SDS011;13410;52.114;5.718;2023-01-29T12:40:28;40.17;;;24.67;;
25503;SDS011;13410;52.114;5.718;2023-01-29T12:43:06;82.00;;;37.78;;
25503;SDS011;13410;52.114;5.718;2023-01-29T12:45:40;260.15;;;97.10;;
25503;SDS011;13410;52.114;5.718;2023-01-29T12:48:09;161.63;;;61.95;;
25503;SDS011;13410;52.114;5.718;2023-01-29T12:50:39;50.60;;;31.93;;
25503;SDS011;13410;52.114;5.718;2023-01-29T12:58:34;42.92;;;24.75;;
25503;SDS011;13410;52.114;5.718;2023-01-29T13:01:08;45.05;;;28.13;;
25503;SDS011;13410;52.114;5.718;2023-01-29T13:06:27;38.22;;;24.52;;
25503;SDS011;13410;52.114;5.718;2023-01-29T13:08:57;41.22;;;24.02;;
25503;SDS011;13410;52.114;5.718;2023-01-29T13:11:32;39.55;;;24.35;;
25503;SDS011;13410;52.114;5.718;2023-01-29T13:16:46;39.58;;;24.92;;
25503;SDS011;13410;52.114;5.718;2023-01-29T13:19:23;38.90;;;23.73;;
25503;SDS011;13410;52.114;5.718;2023-01-29T13:21:53;40.90;;;25.33;;
25503;SDS011;13410;52.114;5.718;2023-01-29T13:24:23;41.40;;;24.90;;
25503;SDS011;13410;52.114;5.718;2023-01-29T13:26:50;41.90;;;25.30;;
25503;SDS011;13410;52.114;5.718;2023-01-29T13:29:19;40.33;;;24.73;;
25503;SDS011;13410;52.114;5.718;2023-01-29T13:31:55;42.28;;;24.80;;
25503;SDS011;13410;52.114;5.718;2023-01-29T13:34:28;41.45;;;24.77;;
25503;SDS011;13410;52.114;5.718;2023-01-29T13:36:57;41.83;;;24.35;;
25503;SDS011;13410;52.114;5.718;2023-01-29T13:41:58;39.95;;;24.33;;
25503;SDS011;13410;52.114;5.718;2023-01-29T13:44:25;41.97;;;25.20;;
25503;SDS011;13410;52.114;5.718;2023-01-29T13:47:01;40.67;;;25.50;;
25503;SDS011;13410;52.114;5.718;2023-01-29T13:52:13;39.38;;;24.88;;
25503;SDS011;13410;52.114;5.718;2023-01-29T13:54:51;42.05;;;24.98;;
25503;SDS011;13410;52.114;5.718;2023-01-29T14:00:53;39.25;;;23.90;;
25503;SDS011;13410;52.114;5.718;2023-01-29T14:07:54;54.85;;;30.88;;
25503;SDS011;13410;52.114;5.718;2023-01-29T14:10:21;43.08;;;25.65;;
25503;SDS011;13410;52.114;5.718;2023-01-29T14:13:33;57.17;;;29.42;;
25503;SDS011;13410;52.114;5.718;2023-01-29T14:15:42;81.25;;;35.97;;
25503;SDS011;13410;52.114;5.718;2023-01-29T14:18:20;39.17;;;24.27;;
25503;SDS011;13410;52.114;5.718;2023-01-29T14:20:56;41.33;;;25.17;;
25503;SDS011;13410;52.114;5.718;2023-01-29T14:26:00;39.05;;;24.33;;
25503;SDS011;13410;52.114;5.718;2023-01-29T14:28:29;39.65;;;24.75;;
25503;SDS011;13410;52.114;5.718;2023-01-29T14:30:56;42.70;;;24.60;;
25503;SDS011;13410;52.114;5.718;2023-01-29T14:33:27;38.42;;;23.92;;
25503;SDS011;13410;52.114;5.718;2023-01-29T14:35:58;39.55;;;23.85;;
25503;SDS011;13410;52.114;5.718;2023-01-29T14:38:36;40.47;;;24.90;;
25503;SDS011;13410;52.114;5.718;2023-01-29T14:47:01;39.38;;;24.30;;
25503;SDS011;13410;52.114;5.718;2023-01-29T14:49:48;41.42;;;24.83;;
25503;SDS011;13410;52.114;5.718;2023-01-29T14:52:14;37.08;;;23.55;;
25503;SDS011;13410;52.114;5.718;2023-01-29T14:54:42;53.65;;;29.98;;
25503;SDS011;13410;52.114;5.718;2023-01-29T14:57:11;43.05;;;26.38;;
25503;SDS011;13410;52.114;5.718;2023-01-29T14:59:47;44.50;;;25.63;;
25503;SDS011;13410;52.114;5.718;2023-01-29T15:02:23;41.40;;;23.55;;
25503;SDS011;13410;52.114;5.718;2023-01-29T15:04:59;40.33;;;24.45;;
25503;SDS011;13410;52.114;5.718;2023-01-29T15:07:31;44.88;;;26.85;;
25503;SDS011;13410;52.114;5.718;2023-01-29T15:12:45;39.78;;;23.92;;
25503;SDS011;13410;52.114;5.718;2023-01-29T15:15:16;47.38;;;28.60;;
25503;SDS011;13410;52.114;5.718;2023-01-29T15:17:51;81.28;;;45.15;;
25503;SDS011;13410;52.114;5.718;2023-01-29T15:20:27;50.83;;;30.15;;
25503;SDS011;13410;52.114;5.718;2023-01-29T15:22:57;46.67;;;28.15;;
25503;SDS011;13410;52.114;5.718;2023-01-29T15:25:24;47.65;;;28.15;;
25503;SDS011;13410;52.114;5.718;2023-01-29T15:27:52;138.50;;;65.90;;
25503;SDS011;13410;52.114;5.718;2023-01-29T15:30:22;43.80;;;26.33;;
25503;SDS011;13410;52.114;5.718;2023-01-29T15:32:51;43.47;;;26.33;;
25503;SDS011;13410;52.114;5.718;2023-01-29T15:37:42;42.10;;;26.08;;
25503;SDS011;13410;52.114;5.718;2023-01-29T15:40:21;45.03;;;25.90;;
25503;SDS011;13410;52.114;5.718;2023-01-29T15:42:47;43.47;;;25.65;;
25503;SDS011;13410;52.114;5.718;2023-01-29T15:45:46;44.83;;;27.77;;
25503;SDS011;13410;52.114;5.718;2023-01-29T15:48:06;44.85;;;26.00;;
25503;SDS011;13410;52.114;5.718;2023-01-29T15:50:39;48.90;;;29.17;;
25503;SDS011;13410;52.114;5.718;2023-01-29T15:53:06;61.92;;;39.03;;
25503;SDS011;13410;52.114;5.718;2023-01-29T15:55:42;47.42;;;29.65;;
25503;SDS011;13410;52.114;5.718;2023-01-29T15:58:11;46.15;;;27.73;;
25503;SDS011;13410;52.114;5.718;2023-01-29T16:00:46;54.42;;;34.97;;
25503;SDS011;13410;52.114;5.718;2023-01-29T16:03:18;51.50;;;29.88;;
25503;SDS011;13410;52.114;5.718;2023-01-29T16:05:47;45.88;;;27.38;;
25503;SDS011;13410;52.114;5.718;2023-01-29T16:08:14;45.95;;;28.17;;
25503;SDS011;13410;52.114;5.718;2023-01-29T16:10:41;52.67;;;31.25;;
25503;SDS011;13410;52.114;5.718;2023-01-29T16:13:11;55.03;;;34.08;;
25503;SDS011;13410;52.114;5.718;2023-01-29T16:15:58;44.25;;;27.15;;
25503;SDS011;13410;52.114;5.718;2023-01-29T16:18:43;52.38;;;30.30;;
25503;SDS011;13410;52.114;5.718;2023-01-29T16:21:15;47.83;;;27.30;;
25503;SDS011;13410;52.114;5.718;2023-01-29T16:23:45;50.15;;;29.67;;
25503;SDS011;13410;52.114;5.718;2023-01-29T16:26:15;50.60;;;29.37;;
25503;SDS011;13410;52.114;5.718;2023-01-29T16:28:44;51.83;;;31.35;;
25503;SDS011;13410;52.114;5.718;2023-01-29T16:31:11;48.65;;;26.48;;
25503;SDS011;13410;52.114;5.718;2023-01-29T16:33:44;45.08;;;25.95;;
25503;SDS011;13410;52.114;5.718;2023-01-29T16:36:17;54.78;;;30.02;;
25503;SDS011;13410;52.114;5.718;2023-01-29T16:41:28;46.25;;;27.23;;
25503;SDS011;13410;52.114;5.718;2023-01-29T16:44:02;45.25;;;27.58;;